Marble Falls, TX

11:14 AM CDT on August 30, 2014 (GMT -0500)
Sherwood Shores | Change Station
CLOSE
Current Station
Personal Weather Station
Location: Granite Shoals, TX
Elevation: 834 ft
Nearby Weather Stations

Elev 834 ft 30.60 °N, 98.39 °W | Updated 2 seconds ago

Scattered Clouds
Scattered Clouds
86.2 °F
Feels Like 96 °F
N
1.6
Wind Variable Wind from NE
Gusts 1.6 mph

Today
High -- | Low -- °F
--% Chance of Precip.
Yesterday
High -- | Low -- °F
Precip. -- in
7:08 AM 7:58 PM
Waxing Crescent, 23% visible
Pressure 29.99 in
Visibility 10.0 miles
Clouds Scattered Clouds 2000 ft
Heat Index 96 °F
Dew Point 76 °F
Humidity 71%
Rainfall 0.00 in
Snow Depth Not available.
UV 6 out of 12
Pollen 7.50 out of 12
Air Quality Not available.
Flu Activity Not available.
METAR KDZB 301555Z AUTO 01005KT 10SM SCT020 28/22 A2999 RMK AO2 T02810216

More Conditions Fewer Conditions

Pressure 29.99 in
Visibility 10.0 miles
Clouds Scattered Clouds 2000 ft
Heat Index 96 °F
Dew Point 76 °F
Humidity 71%
Rainfall 0.00 in
Snow Depth Not available.
UV 6 out of 12
Pollen 7.50 out of 12
Air Quality Not available.
Flu Activity Not available.
METAR KDZB 301555Z AUTO 01005KT 10SM SCT020 28/22 A2999 RMK AO2 T02810216

More Conditions Fewer Conditions

10-Day Weather Forecast

Almanac

Astronomy

Aug. 30, 2014 Rise Set
Actual Time 7:08 AM CDT 7:58 PM CDT
Civil Twilight 6:44 AM CDT 8:23 PM CDT
Nautical Twilight 6:15 AM CDT 8:52 PM CDT
Astronomical Twilight 5:45 AM CDT 9:21 PM CDT
Moon 11:35 AM CDT 10:57 PM CDT
Length of Visible Light 13h 38m
Length of Day
12h 49m
Tomorrow will be 1m 46s shorter.
Waxing Crescent, 23% of the Moon is Illuminated
Today
Waxing Crescent
Sep 2
First Quarter
Sep 8
Full
Sep 15
Last Quarter
Sep 24
New

Today's Extremes

State Highs State Lows

Community

WunderPhotos

Upload Photos

1,748,556 photos uploaded!

WunderBlogs® & News

Nearby

Snow Depth

Station Depth Elevation
No new snow has been reported.

Earthquake Activity

City Distance Mag. Time & Date
No recent earthquake activity has been reported nearby.
Minimum magnitude displayed is 2.5.

Coastal Water Temperatures

Place Temperature
No Stations Reporting

Nearby Weather Stations